sensor_id;sensor_type;location;lat;lon;timestamp;P1;durP1;ratioP1;P2;durP2;ratioP2
14001;SDS011;7076;51.280;12.584;2022-08-16T00:04:56;6.65;;;6.00;;
14001;SDS011;7076;51.280;12.584;2022-08-16T00:10:00;6.25;;;5.65;;
14001;SDS011;7076;51.280;12.584;2022-08-16T00:15:06;6.75;;;5.97;;
14001;SDS011;7076;51.280;12.584;2022-08-16T00:20:17;7.13;;;5.90;;
14001;SDS011;7076;51.280;12.584;2022-08-16T00:25:24;9.15;;;6.10;;
14001;SDS011;7076;51.280;12.584;2022-08-16T00:30:49;12.25;;;8.07;;
14001;SDS011;7076;51.280;12.584;2022-08-16T00:35:53;9.90;;;7.93;;
14001;SDS011;7076;51.280;12.584;2022-08-16T00:40:56;8.40;;;7.55;;
14001;SDS011;7076;51.280;12.584;2022-08-16T00:46:05;8.43;;;7.63;;
14001;SDS011;7076;51.280;12.584;2022-08-16T00:51:33;8.73;;;7.53;;
14001;SDS011;7076;51.280;12.584;2022-08-16T00:56:39;9.38;;;7.80;;
14001;SDS011;7076;51.280;12.584;2022-08-16T01:02:01;10.38;;;8.00;;
14001;SDS011;7076;51.280;12.584;2022-08-16T01:07:26;9.57;;;8.48;;
14001;SDS011;7076;51.280;12.584;2022-08-16T01:12:49;10.05;;;8.70;;
14001;SDS011;7076;51.280;12.584;2022-08-16T01:17:55;9.15;;;8.23;;
14001;SDS011;7076;51.280;12.584;2022-08-16T01:22:59;9.23;;;8.27;;
14001;SDS011;7076;51.280;12.584;2022-08-16T01:28:11;10.80;;;9.40;;
14001;SDS011;7076;51.280;12.584;2022-08-16T01:33:21;10.98;;;8.85;;
14001;SDS011;7076;51.280;12.584;2022-08-16T01:38:34;12.68;;;9.90;;
14001;SDS011;7076;51.280;12.584;2022-08-16T01:43:41;11.00;;;9.60;;
14001;SDS011;7076;51.280;12.584;2022-08-16T01:48:46;10.55;;;9.02;;
14001;SDS011;7076;51.280;12.584;2022-08-16T01:53:49;9.40;;;8.50;;
14001;SDS011;7076;51.280;12.584;2022-08-16T01:59:04;10.18;;;9.13;;
14001;SDS011;7076;51.280;12.584;2022-08-16T02:04:18;10.73;;;8.75;;
14001;SDS011;7076;51.280;12.584;2022-08-16T02:09:44;10.02;;;9.05;;
14001;SDS011;7076;51.280;12.584;2022-08-16T02:15:00;10.05;;;8.90;;
14001;SDS011;7076;51.280;12.584;2022-08-16T02:20:06;9.88;;;8.82;;
14001;SDS011;7076;51.280;12.584;2022-08-16T02:25:13;9.23;;;8.25;;
14001;SDS011;7076;51.280;12.584;2022-08-16T02:30:20;9.90;;;8.90;;
14001;SDS011;7076;51.280;12.584;2022-08-16T02:35:43;11.40;;;8.20;;
14001;SDS011;7076;51.280;12.584;2022-08-16T02:41:00;8.80;;;7.90;;
14001;SDS011;7076;51.280;12.584;2022-08-16T02:46:13;9.10;;;8.25;;
14001;SDS011;7076;51.280;12.584;2022-08-16T02:51:17;9.15;;;8.23;;
14001;SDS011;7076;51.280;12.584;2022-08-16T02:56:24;9.77;;;8.52;;
14001;SDS011;7076;51.280;12.584;2022-08-16T03:01:34;8.70;;;7.32;;
14001;SDS011;7076;51.280;12.584;2022-08-16T03:06:45;8.30;;;7.50;;
14001;SDS011;7076;51.280;12.584;2022-08-16T03:11:54;8.70;;;7.82;;
14001;SDS011;7076;51.280;12.584;2022-08-16T03:16:59;9.15;;;8.25;;
14001;SDS011;7076;51.280;12.584;2022-08-16T03:22:12;7.93;;;7.22;;
14001;SDS011;7076;51.280;12.584;2022-08-16T03:27:30;10.68;;;7.50;;
14001;SDS011;7076;51.280;12.584;2022-08-16T03:32:37;7.72;;;6.90;;
14001;SDS011;7076;51.280;12.584;2022-08-16T03:37:45;7.90;;;7.10;;
14001;SDS011;7076;51.280;12.584;2022-08-16T03:43:12;9.30;;;8.27;;
14001;SDS011;7076;51.280;12.584;2022-08-16T03:48:24;10.02;;;8.07;;
14001;SDS011;7076;51.280;12.584;2022-08-16T03:53:46;8.95;;;7.35;;
14001;SDS011;7076;51.280;12.584;2022-08-16T03:59:02;8.18;;;6.65;;
14001;SDS011;7076;51.280;12.584;2022-08-16T04:04:19;7.78;;;6.85;;
14001;SDS011;7076;51.280;12.584;2022-08-16T04:09:35;8.65;;;7.10;;
14001;SDS011;7076;51.280;12.584;2022-08-16T04:14:39;8.07;;;7.28;;
14001;SDS011;7076;51.280;12.584;2022-08-16T04:19:49;8.20;;;7.40;;
14001;SDS011;7076;51.280;12.584;2022-08-16T04:24:56;6.18;;;5.60;;
14001;SDS011;7076;51.280;12.584;2022-08-16T04:30:07;9.90;;;6.28;;
14001;SDS011;7076;51.280;12.584;2022-08-16T04:35:34;8.27;;;6.28;;
14001;SDS011;7076;51.280;12.584;2022-08-16T04:40:40;7.03;;;6.32;;
14001;SDS011;7076;51.280;12.584;2022-08-16T04:45:44;9.45;;;6.20;;
14001;SDS011;7076;51.280;12.584;2022-08-16T04:51:03;8.13;;;5.88;;
14001;SDS011;7076;51.280;12.584;2022-08-16T04:56:23;7.75;;;6.60;;
14001;SDS011;7076;51.280;12.584;2022-08-16T05:01:27;9.57;;;7.03;;
14001;SDS011;7076;51.280;12.584;2022-08-16T05:06:51;6.43;;;5.65;;
14001;SDS011;7076;51.280;12.584;2022-08-16T05:12:01;6.25;;;5.68;;
14001;SDS011;7076;51.280;12.584;2022-08-16T05:17:06;5.78;;;5.15;;
14001;SDS011;7076;51.280;12.584;2022-08-16T05:22:10;5.57;;;5.10;;
14001;SDS011;7076;51.280;12.584;2022-08-16T05:27:25;5.28;;;4.75;;
14001;SDS011;7076;51.280;12.584;2022-08-16T05:32:28;6.00;;;5.40;;
14001;SDS011;7076;51.280;12.584;2022-08-16T05:37:35;5.80;;;5.18;;
14001;SDS011;7076;51.280;12.584;2022-08-16T05:42:42;5.88;;;4.60;;
14001;SDS011;7076;51.280;12.584;2022-08-16T05:47:51;5.35;;;4.85;;
14001;SDS011;7076;51.280;12.584;2022-08-16T05:53:08;6.75;;;6.18;;
14001;SDS011;7076;51.280;12.584;2022-08-16T05:58:24;6.05;;;4.43;;
14001;SDS011;7076;51.280;12.584;2022-08-16T06:03:34;5.03;;;4.15;;
14001;SDS011;7076;51.280;12.584;2022-08-16T06:08:46;4.35;;;3.95;;
14001;SDS011;7076;51.280;12.584;2022-08-16T06:13:52;4.22;;;3.63;;
14001;SDS011;7076;51.280;12.584;2022-08-16T06:19:07;6.88;;;4.28;;
14001;SDS011;7076;51.280;12.584;2022-08-16T06:24:17;5.88;;;3.95;;
14001;SDS011;7076;51.280;12.584;2022-08-16T06:29:40;8.52;;;4.50;;
14001;SDS011;7076;51.280;12.584;2022-08-16T06:34:51;8.40;;;7.43;;
14001;SDS011;7076;51.280;12.584;2022-08-16T06:40:06;4.28;;;3.95;;
14001;SDS011;7076;51.280;12.584;2022-08-16T06:45:21;6.95;;;5.18;;
14001;SDS011;7076;51.280;12.584;2022-08-16T06:50:55;5.72;;;4.18;;
14001;SDS011;7076;51.280;12.584;2022-08-16T06:56:00;4.70;;;4.30;;
14001;SDS011;7076;51.280;12.584;2022-08-16T07:01:21;4.75;;;4.30;;
14001;SDS011;7076;51.280;12.584;2022-08-16T07:06:45;5.85;;;4.07;;
14001;SDS011;7076;51.280;12.584;2022-08-16T07:11:53;5.15;;;4.50;;
14001;SDS011;7076;51.280;12.584;2022-08-16T07:17:05;6.55;;;3.45;;
14001;SDS011;7076;51.280;12.584;2022-08-16T07:22:21;6.63;;;4.00;;
14001;SDS011;7076;51.280;12.584;2022-08-16T07:27:45;4.80;;;4.40;;
14001;SDS011;7076;51.280;12.584;2022-08-16T07:32:50;7.10;;;4.25;;
14001;SDS011;7076;51.280;12.584;2022-08-16T07:37:54;13.38;;;11.75;;
14001;SDS011;7076;51.280;12.584;2022-08-16T07:43:06;3.83;;;3.53;;
14001;SDS011;7076;51.280;12.584;2022-08-16T07:48:10;4.60;;;4.20;;
14001;SDS011;7076;51.280;12.584;2022-08-16T07:53:18;6.18;;;3.85;;
14001;SDS011;7076;51.280;12.584;2022-08-16T07:58:24;3.95;;;3.45;;
14001;SDS011;7076;51.280;12.584;2022-08-16T08:03:41;6.95;;;3.95;;
14001;SDS011;7076;51.280;12.584;2022-08-16T08:08:51;6.65;;;4.05;;
14001;SDS011;7076;51.280;12.584;2022-08-16T08:14:01;6.20;;;4.45;;
14001;SDS011;7076;51.280;12.584;2022-08-16T08:19:13;7.18;;;3.42;;
14001;SDS011;7076;51.280;12.584;2022-08-16T08:24:18;7.20;;;3.90;;
14001;SDS011;7076;51.280;12.584;2022-08-16T08:29:22;4.63;;;3.30;;
14001;SDS011;7076;51.280;12.584;2022-08-16T08:34:40;4.13;;;3.50;;
14001;SDS011;7076;51.280;12.584;2022-08-16T08:39:47;4.38;;;3.60;;
14001;SDS011;7076;51.280;12.584;2022-08-16T08:44:57;6.15;;;3.92;;
14001;SDS011;7076;51.280;12.584;2022-08-16T08:50:01;4.05;;;3.67;;
14001;SDS011;7076;51.280;12.584;2022-08-16T08:55:07;4.30;;;3.50;;
14001;SDS011;7076;51.280;12.584;2022-08-16T09:00:17;5.25;;;3.58;;
14001;SDS011;7076;51.280;12.584;2022-08-16T09:05:29;4.22;;;3.60;;
14001;SDS011;7076;51.280;12.584;2022-08-16T09:10:40;5.85;;;3.40;;
14001;SDS011;7076;51.280;12.584;2022-08-16T09:15:44;3.97;;;3.33;;
14001;SDS011;7076;51.280;12.584;2022-08-16T09:20:51;5.30;;;3.10;;
14001;SDS011;7076;51.280;12.584;2022-08-16T09:26:00;3.33;;;2.85;;
14001;SDS011;7076;51.280;12.584;2022-08-16T09:31:25;3.67;;;3.10;;
14001;SDS011;7076;51.280;12.584;2022-08-16T09:36:30;3.85;;;2.67;;
14001;SDS011;7076;51.280;12.584;2022-08-16T09:41:34;2.95;;;2.60;;
14001;SDS011;7076;51.280;12.584;2022-08-16T09:46:41;3.22;;;2.92;;
14001;SDS011;7076;51.280;12.584;2022-08-16T09:51:50;3.80;;;3.03;;
14001;SDS011;7076;51.280;12.584;2022-08-16T09:56:53;5.75;;;4.45;;
14001;SDS011;7076;51.280;12.584;2022-08-16T10:01:58;3.60;;;2.40;;
14001;SDS011;7076;51.280;12.584;2022-08-16T10:07:21;2.80;;;2.53;;
14001;SDS011;7076;51.280;12.584;2022-08-16T10:12:24;2.90;;;2.30;;
14001;SDS011;7076;51.280;12.584;2022-08-16T10:17:48;3.00;;;2.53;;
14001;SDS011;7076;51.280;12.584;2022-08-16T10:23:02;4.35;;;2.58;;
14001;SDS011;7076;51.280;12.584;2022-08-16T10:28:08;2.60;;;2.40;;
14001;SDS011;7076;51.280;12.584;2022-08-16T10:33:31;4.35;;;2.97;;
14001;SDS011;7076;51.280;12.584;2022-08-16T10:38:40;2.97;;;2.67;;
14001;SDS011;7076;51.280;12.584;2022-08-16T10:43:43;3.33;;;2.50;;
14001;SDS011;7076;51.280;12.584;2022-08-16T10:48:51;3.13;;;2.63;;
14001;SDS011;7076;51.280;12.584;2022-08-16T10:53:56;2.67;;;2.30;;
14001;SDS011;7076;51.280;12.584;2022-08-16T10:59:00;3.60;;;3.20;;
14001;SDS011;7076;51.280;12.584;2022-08-16T11:04:24;3.67;;;2.80;;
14001;SDS011;7076;51.280;12.584;2022-08-16T11:09:47;3.72;;;2.38;;
14001;SDS011;7076;51.280;12.584;2022-08-16T11:14:50;2.78;;;2.40;;
14001;SDS011;7076;51.280;12.584;2022-08-16T11:20:14;7.70;;;2.30;;
14001;SDS011;7076;51.280;12.584;2022-08-16T11:25:38;3.08;;;2.33;;
14001;SDS011;7076;51.280;12.584;2022-08-16T11:31:02;3.45;;;2.67;;
14001;SDS011;7076;51.280;12.584;2022-08-16T11:36:07;2.83;;;2.35;;
14001;SDS011;7076;51.280;12.584;2022-08-16T11:41:28;3.58;;;2.30;;
14001;SDS011;7076;51.280;12.584;2022-08-16T11:46:36;2.83;;;2.30;;
14001;SDS011;7076;51.280;12.584;2022-08-16T11:51:47;3.83;;;2.08;;
14001;SDS011;7076;51.280;12.584;2022-08-16T11:56:51;3.58;;;2.47;;
14001;SDS011;7076;51.280;12.584;2022-08-16T12:01:58;2.88;;;1.88;;
14001;SDS011;7076;51.280;12.584;2022-08-16T12:07:22;2.10;;;1.85;;
14001;SDS011;7076;51.280;12.584;2022-08-16T12:12:25;3.60;;;2.05;;
14001;SDS011;7076;51.280;12.584;2022-08-16T12:17:29;3.30;;;1.98;;
14001;SDS011;7076;51.280;12.584;2022-08-16T12:22:34;3.20;;;2.33;;
14001;SDS011;7076;51.280;12.584;2022-08-16T12:27:37;1.80;;;1.70;;
14001;SDS011;7076;51.280;12.584;2022-08-16T12:32:41;3.05;;;2.08;;
14001;SDS011;7076;51.280;12.584;2022-08-16T12:37:55;1.80;;;1.65;;
14001;SDS011;7076;51.280;12.584;2022-08-16T12:43:00;2.47;;;1.70;;
14001;SDS011;7076;51.280;12.584;2022-08-16T12:48:04;2.22;;;1.52;;
14001;SDS011;7076;51.280;12.584;2022-08-16T12:53:36;1.63;;;1.42;;
14001;SDS011;7076;51.280;12.584;2022-08-16T12:58:40;3.45;;;2.10;;
14001;SDS011;7076;51.280;12.584;2022-08-16T13:03:51;3.03;;;1.88;;
14001;SDS011;7076;51.280;12.584;2022-08-16T13:09:14;2.08;;;1.73;;
14001;SDS011;7076;51.280;12.584;2022-08-16T13:14:23;2.13;;;1.75;;
14001;SDS011;7076;51.280;12.584;2022-08-16T13:19:33;2.38;;;1.48;;
14001;SDS011;7076;51.280;12.584;2022-08-16T13:24:58;1.42;;;1.33;;
14001;SDS011;7076;51.280;12.584;2022-08-16T13:30:01;2.47;;;2.10;;
14001;SDS011;7076;51.280;12.584;2022-08-16T13:35:22;1.98;;;1.73;;
14001;SDS011;7076;51.280;12.584;2022-08-16T13:40:36;1.95;;;1.75;;
14001;SDS011;7076;51.280;12.584;2022-08-16T13:45:39;3.75;;;1.58;;
14001;SDS011;7076;51.280;12.584;2022-08-16T13:50:45;2.22;;;1.38;;
14001;SDS011;7076;51.280;12.584;2022-08-16T13:55:54;1.75;;;1.65;;
14001;SDS011;7076;51.280;12.584;2022-08-16T14:00:59;1.70;;;1.60;;
14001;SDS011;7076;51.280;12.584;2022-08-16T14:06:03;1.73;;;1.63;;
14001;SDS011;7076;51.280;12.584;2022-08-16T14:11:07;1.65;;;1.38;;
14001;SDS011;7076;51.280;12.584;2022-08-16T14:16:12;4.28;;;1.58;;
14001;SDS011;7076;51.280;12.584;2022-08-16T14:21:30;2.53;;;1.50;;
14001;SDS011;7076;51.280;12.584;2022-08-16T14:26:37;2.60;;;1.52;;
14001;SDS011;7076;51.280;12.584;2022-08-16T14:31:40;1.60;;;1.48;;
14001;SDS011;7076;51.280;12.584;2022-08-16T14:36:43;4.28;;;1.67;;
14001;SDS011;7076;51.280;12.584;2022-08-16T14:41:53;2.65;;;1.70;;
14001;SDS011;7076;51.280;12.584;2022-08-16T14:46:57;1.60;;;1.50;;
14001;SDS011;7076;51.280;12.584;2022-08-16T14:52:00;3.83;;;1.58;;
14001;SDS011;7076;51.280;12.584;2022-08-16T14:57:05;2.97;;;2.00;;
14001;SDS011;7076;51.280;12.584;2022-08-16T15:02:09;1.60;;;1.50;;
14001;SDS011;7076;51.280;12.584;2022-08-16T15:07:34;5.45;;;2.10;;
14001;SDS011;7076;51.280;12.584;2022-08-16T15:12:42;2.65;;;1.73;;
14001;SDS011;7076;51.280;12.584;2022-08-16T15:17:46;2.25;;;1.60;;
14001;SDS011;7076;51.280;12.584;2022-08-16T15:22:58;2.13;;;1.92;;
14001;SDS011;7076;51.280;12.584;2022-08-16T15:28:04;2.30;;;1.58;;
14001;SDS011;7076;51.280;12.584;2022-08-16T15:33:29;3.25;;;1.73;;
14001;SDS011;7076;51.280;12.584;2022-08-16T15:38:33;2.25;;;1.50;;
14001;SDS011;7076;51.280;12.584;2022-08-16T15:43:58;2.20;;;1.80;;
14001;SDS011;7076;51.280;12.584;2022-08-16T15:49:11;1.65;;;1.52;;
14001;SDS011;7076;51.280;12.584;2022-08-16T15:54:16;2.28;;;1.80;;
14001;SDS011;7076;51.280;12.584;2022-08-16T15:59:32;4.47;;;1.60;;
14001;SDS011;7076;51.280;12.584;2022-08-16T16:04:52;1.73;;;1.63;;
14001;SDS011;7076;51.280;12.584;2022-08-16T16:09:55;1.98;;;1.60;;
14001;SDS011;7076;51.280;12.584;2022-08-16T16:15:01;2.25;;;2.00;;
14001;SDS011;7076;51.280;12.584;2022-08-16T16:20:07;2.20;;;1.80;;
14001;SDS011;7076;51.280;12.584;2022-08-16T16:25:15;2.35;;;1.50;;
14001;SDS011;7076;51.280;12.584;2022-08-16T16:30:20;1.95;;;1.65;;
14001;SDS011;7076;51.280;12.584;2022-08-16T16:35:43;3.67;;;1.50;;
14001;SDS011;7076;51.280;12.584;2022-08-16T16:40:55;3.80;;;2.00;;
14001;SDS011;7076;51.280;12.584;2022-08-16T16:46:00;2.47;;;1.70;;
14001;SDS011;7076;51.280;12.584;2022-08-16T16:51:06;2.33;;;1.70;;
14001;SDS011;7076;51.280;12.584;2022-08-16T16:56:10;1.38;;;1.27;;
14001;SDS011;7076;51.280;12.584;2022-08-16T17:01:32;2.00;;;1.40;;
14001;SDS011;7076;51.280;12.584;2022-08-16T17:06:58;3.80;;;1.70;;
14001;SDS011;7076;51.280;12.584;2022-08-16T17:12:02;1.67;;;1.58;;
14001;SDS011;7076;51.280;12.584;2022-08-16T17:17:07;2.38;;;1.40;;
14001;SDS011;7076;51.280;12.584;2022-08-16T17:22:14;1.63;;;1.38;;
14001;SDS011;7076;51.280;12.584;2022-08-16T17:27:20;3.25;;;1.50;;
14001;SDS011;7076;51.280;12.584;2022-08-16T17:32:35;1.48;;;1.23;;
14001;SDS011;7076;51.280;12.584;2022-08-16T17:37:48;3.53;;;1.23;;
14001;SDS011;7076;51.280;12.584;2022-08-16T17:42:54;2.08;;;1.65;;
14001;SDS011;7076;51.280;12.584;2022-08-16T17:47:59;2.53;;;1.30;;
14001;SDS011;7076;51.280;12.584;2022-08-16T17:53:02;3.00;;;1.30;;
14001;SDS011;7076;51.280;12.584;2022-08-16T17:58:05;2.88;;;1.17;;
14001;SDS011;7076;51.280;12.584;2022-08-16T18:03:26;1.67;;;1.38;;
14001;SDS011;7076;51.280;12.584;2022-08-16T18:08:50;1.80;;;1.50;;
14001;SDS011;7076;51.280;12.584;2022-08-16T18:14:03;1.60;;;1.50;;
14001;SDS011;7076;51.280;12.584;2022-08-16T18:19:08;3.33;;;1.25;;
14001;SDS011;7076;51.280;12.584;2022-08-16T18:24:11;1.70;;;1.50;;
14001;SDS011;7076;51.280;12.584;2022-08-16T18:29:16;3.53;;;1.52;;
14001;SDS011;7076;51.280;12.584;2022-08-16T18:34:22;1.40;;;1.30;;
14001;SDS011;7076;51.280;12.584;2022-08-16T18:39:25;2.78;;;1.30;;
14001;SDS011;7076;51.280;12.584;2022-08-16T18:44:27;1.65;;;1.55;;
14001;SDS011;7076;51.280;12.584;2022-08-16T18:49:36;2.78;;;1.50;;
14001;SDS011;7076;51.280;12.584;2022-08-16T18:54:39;3.50;;;1.92;;
14001;SDS011;7076;51.280;12.584;2022-08-16T19:00:03;2.38;;;2.17;;
14001;SDS011;7076;51.280;12.584;2022-08-16T19:05:10;4.32;;;1.98;;
14001;SDS011;7076;51.280;12.584;2022-08-16T19:10:15;5.88;;;2.03;;
14001;SDS011;7076;51.280;12.584;2022-08-16T19:15:19;2.10;;;2.00;;
14001;SDS011;7076;51.280;12.584;2022-08-16T19:20:26;3.20;;;2.30;;
14001;SDS011;7076;51.280;12.584;2022-08-16T19:25:30;4.47;;;2.40;;
14001;SDS011;7076;51.280;12.584;2022-08-16T19:30:48;2.35;;;2.15;;
14001;SDS011;7076;51.280;12.584;2022-08-16T19:35:53;2.42;;;2.22;;
14001;SDS011;7076;51.280;12.584;2022-08-16T19:40:55;2.58;;;2.38;;
14001;SDS011;7076;51.280;12.584;2022-08-16T19:45:58;3.78;;;2.70;;
14001;SDS011;7076;51.280;12.584;2022-08-16T19:51:02;3.35;;;2.40;;
14001;SDS011;7076;51.280;12.584;2022-08-16T19:56:05;2.40;;;2.20;;
14001;SDS011;7076;51.280;12.584;2022-08-16T20:01:08;2.75;;;2.53;;
14001;SDS011;7076;51.280;12.584;2022-08-16T20:06:14;3.67;;;2.50;;
14001;SDS011;7076;51.280;12.584;2022-08-16T20:11:37;2.40;;;2.20;;
14001;SDS011;7076;51.280;12.584;2022-08-16T20:16:39;3.25;;;2.40;;
14001;SDS011;7076;51.280;12.584;2022-08-16T20:21:44;5.47;;;2.35;;
14001;SDS011;7076;51.280;12.584;2022-08-16T20:26:47;3.33;;;2.30;;
14001;SDS011;7076;51.280;12.584;2022-08-16T20:31:50;2.88;;;2.00;;
14001;SDS011;7076;51.280;12.584;2022-08-16T20:36:54;2.80;;;2.60;;
14001;SDS011;7076;51.280;12.584;2022-08-16T20:41:57;3.20;;;2.67;;
14001;SDS011;7076;51.280;12.584;2022-08-16T20:47:00;4.53;;;3.00;;
14001;SDS011;7076;51.280;12.584;2022-08-16T20:52:06;4.07;;;3.28;;
14001;SDS011;7076;51.280;12.584;2022-08-16T20:57:09;3.72;;;3.42;;
14001;SDS011;7076;51.280;12.584;2022-08-16T21:02:13;5.22;;;3.22;;
14001;SDS011;7076;51.280;12.584;2022-08-16T21:07:18;4.05;;;3.40;;
14001;SDS011;7076;51.280;12.584;2022-08-16T21:12:21;3.83;;;3.28;;
14001;SDS011;7076;51.280;12.584;2022-08-16T21:17:27;5.93;;;3.35;;
14001;SDS011;7076;51.280;12.584;2022-08-16T21:22:31;5.25;;;3.15;;
14001;SDS011;7076;51.280;12.584;2022-08-16T21:27:34;3.60;;;3.25;;
14001;SDS011;7076;51.280;12.584;2022-08-16T21:33:00;3.25;;;2.92;;
14001;SDS011;7076;51.280;12.584;2022-08-16T21:38:06;4.65;;;3.42;;
14001;SDS011;7076;51.280;12.584;2022-08-16T21:43:30;4.95;;;3.30;;
14001;SDS011;7076;51.280;12.584;2022-08-16T21:48:34;4.65;;;2.90;;
14001;SDS011;7076;51.280;12.584;2022-08-16T21:53:42;3.90;;;2.88;;
14001;SDS011;7076;51.280;12.584;2022-08-16T21:58:45;4.03;;;3.10;;
14001;SDS011;7076;51.280;12.584;2022-08-16T22:03:53;3.10;;;2.80;;
14001;SDS011;7076;51.280;12.584;2022-08-16T22:09:17;2.97;;;2.67;;
14001;SDS011;7076;51.280;12.584;2022-08-16T22:14:20;3.67;;;2.80;;
14001;SDS011;7076;51.280;12.584;2022-08-16T22:19:23;3.25;;;3.05;;
14001;SDS011;7076;51.280;12.584;2022-08-16T22:24:27;2.97;;;2.67;;
14001;SDS011;7076;51.280;12.584;2022-08-16T22:29:30;5.25;;;2.90;;
14001;SDS011;7076;51.280;12.584;2022-08-16T22:34:33;2.95;;;2.75;;
14001;SDS011;7076;51.280;12.584;2022-08-16T22:39:37;4.22;;;2.65;;
14001;SDS011;7076;51.280;12.584;2022-08-16T22:44:40;2.80;;;2.60;;
14001;SDS011;7076;51.280;12.584;2022-08-16T22:49:46;3.33;;;2.63;;
14001;SDS011;7076;51.280;12.584;2022-08-16T22:54:51;4.40;;;2.55;;
14001;SDS011;7076;51.280;12.584;2022-08-16T22:59:53;2.67;;;2.42;;
14001;SDS011;7076;51.280;12.584;2022-08-16T23:04:56;3.45;;;2.35;;
14001;SDS011;7076;51.280;12.584;2022-08-16T23:10:00;5.07;;;2.70;;
14001;SDS011;7076;51.280;12.584;2022-08-16T23:15:03;2.97;;;2.67;;
14001;SDS011;7076;51.280;12.584;2022-08-16T23:20:08;3.13;;;2.50;;
14001;SDS011;7076;51.280;12.584;2022-08-16T23:25:15;4.68;;;2.92;;
14001;SDS011;7076;51.280;12.584;2022-08-16T23:30:20;2.88;;;2.50;;
14001;SDS011;7076;51.280;12.584;2022-08-16T23:35:25;4.63;;;2.80;;
14001;SDS011;7076;51.280;12.584;2022-08-16T23:40:47;4.90;;;2.63;;
14001;SDS011;7076;51.280;12.584;2022-08-16T23:45:51;4.75;;;2.50;;
14001;SDS011;7076;51.280;12.584;2022-08-16T23:50:55;2.70;;;2.35;;
14001;SDS011;7076;51.280;12.584;2022-08-16T23:56:00;2.75;;;2.40;;
